KESN/ESN METAR and TAF weather

Enter ICAO airport designator
Station Type Date Time Source
KESN METAR 2021/04/13 08:15 UTC NOAA

KESN 130815Z AUTO 04003KT 10SM SCT015 SCT022 BKN030 10/08 A3000 RMK AO2 T00970080


Station Type Date Time Source
KESN Decoded METAR 2021/04/13 08:15 UTC NOAA

Easton / Newman Field, MD, United States (KESN) 38-48N 076-04W
Apr 13, 2021 - 04:15 AM EDT / 2021.04.13 0815 UTC
Wind: from the NE (040 degrees) at 3 MPH (3 KT):0
Visibility: 10 mile(s):0
Sky conditions: mostly cloudy
Temperature: 49.5 F (9.7 C)
Dew Point: 46.4 F (8.0 C)
Relative Humidity: 89%
Pressure (altimeter): 30 in. Hg (1015 hPa)
ob: KESN 130815Z AUTO 04003KT 10SM SCT015 SCT022 BKN030 10/08 A3000 RMK AO2 T00970080
cycle: 8

Station Type Date Time Source
KESN TAF UTC NOAA

Error!

Example: see airport list